Macedonia, IA (51549)

9:18 AM CDT on October 01, 2014 (GMT -0500)
Farm 1 mile south of | Change Station
CLOSE
Current Station
Personal Weather Station
Location: Henderson, IA
Elevation: 1050 ft
Nearby Weather Stations

Elev 1050 ft 41.14 °N, 95.43 °W | Updated 6 minutes ago

Overcast
Overcast
63.3 °F
Feels Like 63.3 °F
N
2.0
Wind Variable Wind from WNW
Gusts 3.0 mph

Today
High -- | Low -- °F
--% Chance of Precip.
Yesterday
High -- | Low -- °F
Precip. -- in
7:18 AM 7:03 PM
Waxing Crescent, 48% visible
Pressure 29.77 in
Visibility 10.0 miles
Clouds Mostly Cloudy 800 ft
Mostly Cloudy 1300 ft
Overcast 2600 ft
Dew Point 62 °F
Humidity 95%
Rainfall 1.53 in
Snow Depth Not available.
UV 0 out of 12
Pollen 1.20 out of 12
Ozone Good
PM2.5 Good
Flu Activity Not available.
METAR KRDK 011355Z AUTO 00000KT 10SM BKN008 BKN013 OVC026 18/17 A2977 RMK AO2 P0001

More Conditions Fewer Conditions

Pressure 29.77 in
Visibility 10.0 miles
Clouds Mostly Cloudy 800 ft
Mostly Cloudy 1300 ft
Overcast 2600 ft
Dew Point 62 °F
Humidity 95%
Rainfall 1.53 in
Snow Depth Not available.
UV 0 out of 12
Pollen 1.20 out of 12
Ozone Good
PM2.5 Good
Flu Activity Not available.
METAR KRDK 011355Z AUTO 00000KT 10SM BKN008 BKN013 OVC026 18/17 A2977 RMK AO2 P0001

More Conditions Fewer Conditions

10-Day Weather Forecast

Almanac

Astronomy

Oct. 01, 2014 Rise Set
Actual Time 7:18 AM CDT 7:03 PM CDT
Civil Twilight 6:50 AM CDT 7:30 PM CDT
Nautical Twilight 6:18 AM CDT 8:02 PM CDT
Astronomical Twilight 5:46 AM CDT 8:35 PM CDT
Moon 2:22 PM CDT No Moon Set
Length of Visible Light 12h 40m
Length of Day
11h 45m
Tomorrow will be 2m 44s shorter.
Waxing Crescent, 48% of the Moon is Illuminated
Today
Waxing Crescent
Oct 1
First Quarter
Oct 8
Full
Oct 15
Last Quarter
Oct 23
New

Today's Extremes

State Highs State Lows

Community

WunderPhotos

Upload Photos

1,757,952 photos uploaded!

Nearby

Air Quality

  Air Quality AQ Index Pollutant
Yesterday Moderate
PM2.5
Yesterday Good
OZONE
Current Good
OZONE
Current Good
PM2.5
Wednesday Good
OZONE
Wednesday Good
PM2.5
Wednesday Good
CO
Thursday Good
OZONE
Thursday Good
PM2.5
Thursday Good
CO

Snow Depth

Station Depth Elevation
No new snow has been reported.

Earthquake Activity

City Distance Mag. Time & Date
No recent earthquake activity has been reported nearby.
Minimum magnitude displayed is 2.5.

Coastal Water Temperatures

Place Temperature
No Stations Reporting

Nearby Weather Stations